Time;durP1;ratioP1;P1;durP2;ratioP2;P2;SDS_P1;SDS_P2;PMS_P1;PMS_P2;Temp;Humidity;BMP_temperature;BMP_pressure;BME280_temperature;BME280_humidity;BME280_pressure;Samples;Min_cycle;Max_cycle;Signal;HPM_P1;HPM_P2
2022/07/12 00:01:08;;;;;;;4.03;3.83;;;20.00;48.50;;;;;;20434;6828;281142;-86
2022/07/12 00:03:44;;;;;;;4.00;3.83;;;20.10;48.80;;;;;;20558;6832;118563;-86
2022/07/12 00:06:19;;;;;;;4.17;3.97;;;20.00;48.80;;;;;;20448;6815;309130;-86
2022/07/12 00:08:55;;;;;;;4.20;3.90;;;20.10;48.90;;;;;;20484;6808;309514;-85
2022/07/12 00:11:30;;;;;;;4.30;4.00;;;20.30;48.40;;;;;;20531;6793;282261;-86
2022/07/12 00:14:06;;;;;;;4.18;3.97;;;20.60;48.30;;;;;;20402;6793;313665;-86
2022/07/12 00:16:42;;;;;;;4.17;3.97;;;20.70;47.70;;;;;;20536;6793;280361;-86
2022/07/12 00:19:17;;;;;;;3.70;3.50;;;20.80;47.50;;;;;;20749;6793;117615;-85
2022/07/12 00:21:53;;;;;;;3.60;3.40;;;20.40;47.70;;;;;;20754;6792;117231;-86
2022/07/12 00:24:28;;;;;;;3.43;3.23;;;20.00;48.30;;;;;;20599;6797;118717;-86
2022/07/12 00:27:04;;;;;;;4.18;3.87;;;19.70;48.90;;;;;;20487;6812;308379;-86
2022/07/12 00:29:39;;;;;;;3.90;3.70;;;19.80;49.50;;;;;;20425;6832;309769;-86
2022/07/12 00:32:15;;;;;;;4.27;4.07;;;20.20;49.00;;;;;;20570;6848;145468;-86
2022/07/12 00:34:51;;;;;;;4.00;3.70;;;20.00;48.80;;;;;;20482;6832;119038;-86
2022/07/12 00:37:26;;;;;;;4.07;3.77;;;19.80;49.20;;;;;;20690;6813;119332;-86
2022/07/12 00:40:08;;;;;;;4.40;4.10;;;19.50;49.50;;;;;;20514;6799;311742;-86
2022/07/12 00:42:44;;;;;;;3.90;3.70;;;19.80;49.90;;;;;;20427;6828;309298;-86
2022/07/12 00:45:19;;;;;;;3.30;3.20;;;20.10;49.30;;;;;;20678;6817;117955;-86
2022/07/12 00:47:55;;;;;;;4.00;3.80;;;20.00;49.10;;;;;;20680;6813;120054;-87
2022/07/12 00:50:31;;;;;;;3.90;3.70;;;19.90;49.10;;;;;;20437;6823;282209;-86
2022/07/12 00:53:08;;;;;;;3.70;3.50;;;19.90;49.10;;;;;;20356;6843;321717;-86
2022/07/12 00:55:46;;;;;;;3.83;3.60;;;20.20;48.80;;;;;;20463;6817;281618;-86
2022/07/12 00:58:19;;;;;;;3.70;3.50;;;20.40;48.40;;;;;;20451;6814;333461;-86
2022/07/12 01:00:56;;;;;;;3.87;3.67;;;20.30;48.60;;;;;;20685;6814;119519;-85
2022/07/12 01:03:31;;;;;;;3.90;3.43;;;20.20;48.50;;;;;;20649;6808;117415;-87
2022/07/12 01:06:07;;;;;;;3.95;3.75;;;19.80;49.30;;;;;;20413;6829;301178;-86
2022/07/12 01:08:43;;;;;;;3.63;3.43;;;19.80;49.30;;;;;;20645;6829;117641;-86
2022/07/12 01:11:18;;;;;;;3.70;3.50;;;19.60;49.20;;;;;;20709;6806;118610;-86
2022/07/12 01:13:54;;;;;;;4.20;3.90;;;19.40;49.80;;;;;;20672;6793;117818;-86
2022/07/12 01:16:31;;;;;;;3.47;3.27;;;19.10;50.10;;;;;;20666;6808;118692;-86
2022/07/12 01:19:07;;;;;;;3.90;3.70;;;18.90;50.50;;;;;;20735;6793;117328;-86
2022/07/12 01:21:42;;;;;;;4.23;3.97;;;18.70;50.70;;;;;;20702;6808;117789;-87
2022/07/12 01:24:21;;;;;;;4.33;4.03;;;18.60;50.90;;;;;;20618;6793;118549;-86
2022/07/12 01:26:57;;;;;;;3.63;3.47;;;18.40;51.10;;;;;;20739;6793;117361;-85
2022/07/12 01:29:42;;;;;;;4.53;4.33;;;18.30;51.00;;;;;;20491;6808;311761;-86
2022/07/12 01:32:25;;;;;;;4.47;4.27;;;18.70;51.30;;;;;;20459;6811;282953;-87
2022/07/12 01:35:03;;;;;;;4.93;4.53;;;19.10;50.60;;;;;;20312;6817;280281;-87
2022/07/12 01:37:42;;;;;;;4.30;4.10;;;19.40;50.70;;;;;;20431;6828;280394;-86
2022/07/12 01:40:21;;;;;;;4.47;4.17;;;19.60;49.90;;;;;;20471;6806;311855;-87
2022/07/12 01:43:04;;;;;;;4.60;4.30;;;19.80;49.20;;;;;;20483;6808;301166;-87
2022/07/12 01:45:30;;;;;;;4.97;4.68;;;19.80;48.80;;;;;;20533;6793;308916;-85
2022/07/12 01:48:05;;;;;;;5.10;4.90;;;19.90;48.60;;;;;;20474;6808;280267;-87
2022/07/12 01:50:41;;;;;;;4.80;4.50;;;20.00;48.70;;;;;;20490;6808;308165;-87
2022/07/12 01:53:16;;;;;;;5.20;4.90;;;20.00;48.90;;;;;;20441;6812;283875;-87
2022/07/12 01:55:53;;;;;;;5.37;4.97;;;20.10;48.10;;;;;;20478;6813;309283;-86
2022/07/12 01:58:28;;;;;;;5.33;4.87;;;20.10;48.10;;;;;;20467;6813;281584;-86
2022/07/12 02:01:04;;;;;;;5.15;4.75;;;20.10;48.30;;;;;;20480;6813;284735;-86
2022/07/12 02:03:39;;;;;;;4.37;4.17;;;20.20;48.30;;;;;;20657;6806;117744;-87
2022/07/12 02:06:15;;;;;;;4.20;4.00;;;19.80;48.50;;;;;;20671;6813;119499;-87
2022/07/12 02:08:51;;;;;;;4.17;3.87;;;19.40;49.30;;;;;;20726;6799;118330;-87
2022/07/12 02:11:26;;;;;;;4.90;4.60;;;19.00;49.80;;;;;;20470;6814;311319;-86
2022/07/12 02:14:05;;;;;;;4.60;4.30;;;19.00;50.00;;;;;;20544;6828;120468;-87
2022/07/12 02:16:38;;;;;;;5.10;4.80;;;19.00;50.00;;;;;;20436;6826;309655;-86
2022/07/12 02:19:14;;;;;;;5.37;4.70;;;19.20;50.20;;;;;;20706;6799;118182;-86
2022/07/12 02:21:49;;;;;;;4.90;4.50;;;19.00;50.10;;;;;;20682;6814;119151;-85
2022/07/12 02:24:25;;;;;;;5.10;4.70;;;18.70;50.60;;;;;;20537;6814;117715;-86
2022/07/12 02:27:00;;;;;;;4.63;4.40;;;18.40;50.80;;;;;;20680;6814;119831;-87
2022/07/12 02:29:36;;;;;;;5.05;4.78;;;18.20;51.20;;;;;;20502;6802;309117;-86
2022/07/12 02:32:11;;;;;;;4.60;4.40;;;18.50;51.90;;;;;;20651;6817;119291;-87
2022/07/12 02:34:47;;;;;;;5.30;5.00;;;18.50;51.60;;;;;;20380;6799;281338;-85
2022/07/12 02:37:22;;;;;;;5.47;5.13;;;18.80;51.20;;;;;;20679;6814;117896;-86
2022/07/12 02:42:54;;;;;;;5.40;5.10;;;18.90;51.00;;;;;;20714;6799;117931;-87
2022/07/12 02:45:30;;;;;;;5.68;5.37;;;18.80;51.20;;;;;;20471;6813;310384;-85
2022/07/12 02:48:05;;;;;;;5.40;5.10;;;18.80;51.20;;;;;;20663;6813;119028;-88
2022/07/12 02:50:41;;;;;;;5.37;4.97;;;18.70;51.00;;;;;;20689;6813;118707;-87
2022/07/12 02:53:17;;;;;;;6.00;5.60;;;18.40;51.20;;;;;;20692;6798;118755;-86
2022/07/12 02:55:52;;;;;;;5.23;4.93;;;18.20;51.70;;;;;;20691;6813;119802;-87
2022/07/12 02:58:28;;;;;;;6.05;5.75;;;18.00;52.00;;;;;;20493;6802;308815;-86
2022/07/12 03:01:03;;;;;;;6.20;5.80;;;18.30;52.30;;;;;;20730;6799;117807;-86
2022/07/12 03:03:39;;;;;;;5.50;5.10;;;18.30;52.10;;;;;;20662;6802;117250;-87
2022/07/12 03:06:15;;;;;;;5.10;4.80;;;18.10;52.30;;;;;;20619;6829;128164;-87
2022/07/12 03:08:51;;;;;;;6.57;6.27;;;18.20;52.40;;;;;;20473;6817;279640;-86
2022/07/12 03:11:26;;;;;;;6.40;6.00;;;18.20;52.40;;;;;;20417;6832;309701;-87
2022/07/12 03:14:02;;;;;;;6.30;5.80;;;18.60;51.60;;;;;;20338;6828;304431;-87
2022/07/12 03:16:37;;;;;;;5.30;5.00;;;18.90;51.20;;;;;;20451;6813;312014;-86
2022/07/12 03:19:14;;;;;;;5.20;4.90;;;18.90;51.00;;;;;;20680;6814;117510;-87
2022/07/12 03:21:49;;;;;;;5.33;4.93;;;18.90;51.00;;;;;;20671;6817;119214;-85
2022/07/12 03:24:25;;;;;;;4.90;4.53;;;18.50;51.30;;;;;;20535;6817;120263;-87
2022/07/12 03:27:00;;;;;;;5.67;5.37;;;18.20;51.80;;;;;;20418;6832;309454;-83
2022/07/12 03:29:36;;;;;;;5.37;5.07;;;18.50;51.90;;;;;;20593;6843;118912;-84
2022/07/12 03:32:12;;;;;;;4.97;4.77;;;18.20;52.00;;;;;;20597;6838;117582;-84
2022/07/12 03:34:48;;;;;;;4.70;4.50;;;18.20;52.00;;;;;;20468;6823;119386;-84
2022/07/12 03:37:33;;;;;;;4.73;4.43;;;18.10;52.30;;;;;;20703;6808;117394;-84
2022/07/12 03:39:59;;;;;;;5.97;5.60;;;17.90;52.40;;;;;;20441;6823;339649;-83
2022/07/12 03:42:35;;;;;;;5.70;5.40;;;18.20;52.40;;;;;;20462;6815;282471;-85
2022/07/12 03:45:10;;;;;;;5.03;4.83;;;18.70;51.80;;;;;;20541;6808;119718;-85
2022/07/12 03:47:46;;;;;;;5.03;4.83;;;18.60;51.60;;;;;;20706;6808;118718;-84
2022/07/12 03:50:21;;;;;;;13.10;12.00;;;18.40;52.00;;;;;;20647;6823;117829;-84
2022/07/12 03:52:57;;;;;;;13.33;12.30;;;18.20;52.30;;;;;;20719;6797;118831;-85
2022/07/12 03:55:32;;;;;;;7.40;6.90;;;18.10;52.50;;;;;;20703;6810;118019;-84
2022/07/12 03:58:08;;;;;;;5.87;5.47;;;18.00;52.80;;;;;;20655;6820;117545;-83
2022/07/12 04:00:43;;;;;;;4.63;4.33;;;18.00;53.00;;;;;;20652;6827;117493;-84
2022/07/12 04:03:19;;;;;;;5.00;4.67;;;18.00;53.00;;;;;;20619;6823;117382;-84
2022/07/12 04:05:55;;;;;;;4.80;4.50;;;18.00;53.20;;;;;;20717;6802;118425;-84
2022/07/12 04:08:31;;;;;;;4.73;4.53;;;18.00;53.10;;;;;;20683;6808;119006;-83
2022/07/12 04:11:06;;;;;;;4.90;4.70;;;18.10;53.40;;;;;;20644;6828;117528;-83
2022/07/12 04:13:42;;;;;;;5.60;5.30;;;18.10;53.30;;;;;;20364;6828;311088;-85
2022/07/12 04:16:18;;;;;;;5.10;4.80;;;18.50;53.00;;;;;;20637;6823;126857;-83
2022/07/12 04:18:54;;;;;;;5.30;5.00;;;18.60;52.50;;;;;;20705;6808;117421;-83
2022/07/12 04:21:29;;;;;;;5.22;4.93;;;18.50;52.60;;;;;;20496;6806;328543;-83
2022/07/12 04:24:04;;;;;;;4.80;4.50;;;18.80;52.50;;;;;;20599;6814;119817;-83
2022/07/12 04:26:41;;;;;;;5.43;5.12;;;19.10;51.60;;;;;;20479;6814;281867;-84
2022/07/12 04:29:16;;;;;;;5.18;4.97;;;19.10;51.60;;;;;;20495;6806;338705;-84
2022/07/12 04:31:52;;;;;;;4.47;4.27;;;19.50;51.00;;;;;;20505;6802;308542;-84
2022/07/12 04:34:28;;;;;;;5.25;4.85;;;19.70;50.50;;;;;;20362;6808;339885;-81
2022/07/12 04:37:03;;;;;;;4.43;4.23;;;19.90;50.00;;;;;;20714;6808;116276;-83
2022/07/12 04:39:39;;;;;;;5.60;5.20;;;19.60;50.20;;;;;;20526;6797;309403;-84
2022/07/12 04:42:14;;;;;;;5.03;4.63;;;19.60;50.40;;;;;;20717;6799;118306;-84
2022/07/12 04:44:51;;;;;;;5.67;5.27;;;19.50;50.60;;;;;;20378;6802;281650;-84
2022/07/12 04:47:27;;;;;;;5.00;4.80;;;19.50;50.60;;;;;;20477;6814;310079;-86
2022/07/12 04:50:06;;;;;;;4.67;4.47;;;19.70;50.40;;;;;;20651;6828;118164;-85
2022/07/12 04:52:43;;;;;;;4.90;4.60;;;19.50;50.60;;;;;;20434;6828;313302;-85
2022/07/12 04:55:19;;;;;;;5.37;5.07;;;19.60;50.70;;;;;;20253;6888;342125;-85
2022/07/12 04:57:56;;;;;;;5.33;5.10;;;19.90;50.20;;;;;;20474;6814;309697;-87
2022/07/12 05:00:32;;;;;;;4.57;4.37;;;20.00;49.70;;;;;;20660;6817;119826;-85
2022/07/12 05:03:07;;;;;;;4.90;4.60;;;19.90;50.00;;;;;;20444;6814;314729;-86
2022/07/12 05:05:43;;;;;;;4.70;4.50;;;19.90;50.00;;;;;;20682;6817;119655;-87
2022/07/12 05:08:19;;;;;;;4.97;4.70;;;19.80;50.30;;;;;;20470;6828;310047;-80
2022/07/12 05:10:55;;;;;;;4.17;3.97;;;19.70;50.20;;;;;;20694;6828;117927;-85
2022/07/12 05:13:30;;;;;;;5.20;4.80;;;19.60;50.40;;;;;;20416;6813;343486;-85
2022/07/12 05:16:06;;;;;;;5.33;5.03;;;19.70;50.50;;;;;;20435;6821;308666;-85
2022/07/12 05:18:42;;;;;;;5.10;4.80;;;19.90;49.90;;;;;;20495;6808;323372;-84
2022/07/12 05:21:17;;;;;;;4.67;4.37;;;20.10;49.60;;;;;;20731;6797;119428;-84
2022/07/12 05:23:53;;;;;;;5.30;4.90;;;19.90;49.90;;;;;;20465;6793;310740;-85
2022/07/12 05:26:28;;;;;;;5.17;4.77;;;20.00;50.40;;;;;;20727;6793;119520;-85
2022/07/12 05:29:04;;;;;;;5.43;5.10;;;19.80;50.40;;;;;;20758;6793;116655;-84
2022/07/12 05:31:41;;;;;;;5.20;4.90;;;19.60;50.80;;;;;;20531;6797;308077;-83
2022/07/12 05:34:17;;;;;;;4.77;4.57;;;19.80;51.00;;;;;;20409;6795;294933;-84
2022/07/12 05:36:52;;;;;;;5.57;5.17;;;20.10;50.70;;;;;;20640;6832;117338;-85
2022/07/12 05:39:28;;;;;;;5.90;5.60;;;20.00;50.60;;;;;;20498;6806;308670;-85
2022/07/12 05:42:03;;;;;;;5.00;4.80;;;20.10;50.30;;;;;;20481;6814;305382;-84
2022/07/12 05:44:39;;;;;;;5.60;5.13;;;20.40;50.30;;;;;;20540;6813;117885;-85
2022/07/12 05:47:15;;;;;;;4.87;4.50;;;20.20;50.30;;;;;;20734;6799;117936;-85
2022/07/12 05:49:50;;;;;;;5.43;5.12;;;19.90;50.80;;;;;;20524;6799;308686;-84
2022/07/12 05:55:22;;;;;;;5.10;4.70;;;20.70;50.20;;;;;;20517;6802;279444;-85
2022/07/12 05:57:58;;;;;;;4.73;4.40;;;20.70;50.20;;;;;;20594;6847;117640;-85
2022/07/12 06:00:33;;;;;;;4.30;4.10;;;20.60;50.30;;;;;;20673;6808;117121;-84
2022/07/12 06:03:09;;;;;;;5.32;5.03;;;20.40;50.80;;;;;;20462;6808;285122;-87
2022/07/12 06:05:45;;;;;;;5.00;4.70;;;20.90;50.50;;;;;;20444;6823;309239;-87
2022/07/12 06:08:21;;;;;;;5.27;4.57;;;20.90;50.40;;;;;;20641;6823;117540;-87
2022/07/12 06:10:56;;;;;;;5.23;4.93;;;20.90;51.10;;;;;;20470;6817;307493;-86
2022/07/12 06:13:33;;;;;;;4.85;4.65;;;21.60;50.00;;;;;;20411;6817;314682;-87
2022/07/12 06:16:10;;;;;;;5.00;4.50;;;21.50;50.00;;;;;;20435;6823;310312;-86
2022/07/12 06:18:44;;;;;;;4.60;4.40;;;22.00;49.70;;;;;;20500;6807;308085;-85
2022/07/12 06:21:19;;;;;;;4.37;4.17;;;22.40;49.50;;;;;;20721;6807;117373;-84
2022/07/12 06:23:55;;;;;;;4.10;3.80;;;22.60;49.90;;;;;;20594;6822;117823;-84
2022/07/12 06:26:31;;;;;;;5.03;4.63;;;23.60;47.40;;;;;;20407;6837;311744;-87
2022/07/12 06:29:07;;;;;;;3.90;3.70;;;23.50;47.30;;;;;;20637;6838;117426;-85
2022/07/12 06:31:42;;;;;;;4.00;3.80;;;24.20;47.80;;;;;;20680;6825;117007;-84
2022/07/12 06:34:18;;;;;;;4.50;4.10;;;24.60;47.80;;;;;;20368;6815;310278;-85
2022/07/12 06:36:53;;;;;;;4.62;4.12;;;25.50;44.60;;;;;;20490;6814;339355;-84
2022/07/12 06:39:29;;;;;;;3.70;3.50;;;26.60;42.30;;;;;;20691;6815;117872;-87
2022/07/12 06:42:14;;;;;;;4.50;4.30;;;27.00;42.90;;;;;;20545;6793;310845;-87
2022/07/12 06:44:40;;;;;;;4.60;4.20;;;27.70;40.10;;;;;;20641;6793;119233;-83
2022/07/12 06:47:16;;;;;;;4.77;4.47;;;28.00;40.70;;;;;;20563;6808;309002;-82
2022/07/12 06:49:51;;;;;;;4.57;4.17;;;28.60;38.20;;;;;;20813;6797;117677;-84
2022/07/12 06:52:27;;;;;;;4.67;4.37;;;28.90;39.00;;;;;;20579;6793;292160;-83
2022/07/12 06:55:03;;;;;;;4.90;4.50;;;29.30;36.80;;;;;;20368;6808;310071;-82
2022/07/12 06:57:38;;;;;;;4.27;3.97;;;29.90;36.20;;;;;;20765;6808;116820;-84
2022/07/12 07:00:14;;;;;;;4.30;4.10;;;29.90;36.80;;;;;;20537;6808;279328;-84
2022/07/12 07:02:49;;;;;;;4.67;4.10;;;30.10;35.50;;;;;;20757;6812;116576;-84
2022/07/12 07:05:25;;;;;;;4.30;4.10;;;30.20;36.50;;;;;;20548;6814;277742;-83
2022/07/12 07:08:01;;;;;;;4.30;4.00;;;30.50;35.30;;;;;;20528;6817;313298;-83
2022/07/12 07:10:37;;;;;;;4.30;4.00;;;31.20;34.40;;;;;;20502;6806;279908;-84
2022/07/12 07:13:14;;;;;;;3.93;3.73;;;31.20;34.40;;;;;;20513;6793;310544;-84
2022/07/12 07:15:50;;;;;;;3.77;3.57;;;31.40;34.40;;;;;;20706;6808;117433;-83
2022/07/12 07:18:27;;;;;;;4.00;3.70;;;31.00;35.00;;;;;;20479;6808;288791;-83
2022/07/12 07:21:01;;;;;;;3.20;3.10;;;31.10;35.10;;;;;;20701;6808;117738;-83
2022/07/12 07:23:37;;;;;;;3.83;3.63;;;30.80;35.60;;;;;;20680;6793;117308;-83
2022/07/12 07:26:13;;;;;;;3.60;3.50;;;30.00;36.20;;;;;;20720;6797;117824;-83
2022/07/12 07:31:44;;;;;;;3.73;3.40;;;29.70;36.70;;;;;;20721;6802;117225;-82
2022/07/12 07:34:20;;;;;;;3.27;3.17;;;29.40;36.90;;;;;;20605;6798;119727;-83
2022/07/12 07:36:59;;;;;;;3.60;3.40;;;29.10;37.20;;;;;;20450;6821;309721;-83
2022/07/12 07:39:35;;;;;;;3.60;3.40;;;29.30;36.40;;;;;;20539;6808;280155;-84
2022/07/12 07:42:11;;;;;;;3.30;3.10;;;29.40;36.40;;;;;;20522;6808;307882;-84
2022/07/12 07:44:46;;;;;;;2.60;2.50;;;29.40;35.80;;;;;;20587;6799;118384;-85
2022/07/12 07:47:25;;;;;;;3.10;2.90;;;29.10;35.90;;;;;;20486;6814;307247;-85
2022/07/12 07:49:58;;;;;;;3.20;3.00;;;29.00;36.80;;;;;;20503;6806;300856;-84
2022/07/12 07:52:33;;;;;;;2.70;2.60;;;29.20;36.00;;;;;;20697;6808;117382;-85
2022/07/12 07:55:09;;;;;;;2.90;2.70;;;29.00;36.30;;;;;;20541;6808;120125;-85
2022/07/12 07:57:46;;;;;;;3.80;2.70;;;28.60;36.80;;;;;;20758;6793;117337;-87
2022/07/12 08:00:20;;;;;;;3.10;2.90;;;28.30;37.20;;;;;;20458;6808;307975;-85
2022/07/12 08:02:56;;;;;;;2.80;2.60;;;28.60;38.10;;;;;;20530;6793;308723;-86
2022/07/12 08:05:32;;;;;;;2.87;2.67;;;29.00;36.60;;;;;;20534;6793;310377;-86
2022/07/12 08:08:07;;;;;;;3.40;2.87;;;29.30;35.60;;;;;;20511;6797;279015;-86
2022/07/12 08:10:43;;;;;;;2.50;2.40;;;29.50;34.70;;;;;;20489;6808;309523;-87
2022/07/12 08:13:19;;;;;;;2.57;2.37;;;29.50;34.60;;;;;;20663;6808;117614;-86
2022/07/12 08:15:54;;;;;;;2.90;2.70;;;29.40;35.10;;;;;;20750;6793;117494;-85
2022/07/12 08:18:30;;;;;;;2.87;2.27;;;29.10;36.00;;;;;;20729;6793;117854;-85
2022/07/12 08:21:06;;;;;;;7.40;2.80;;;28.80;36.00;;;;;;20528;6797;308608;-86
2022/07/12 08:23:42;;;;;;;3.53;2.30;;;29.30;35.00;;;;;;20466;6796;279970;-87
2022/07/12 08:26:18;;;;;;;2.20;1.50;;;29.20;35.00;;;;;;20513;6796;307872;-85
2022/07/12 08:28:53;;;;;;;1.53;1.43;;;29.50;34.90;;;;;;20731;6799;117347;-85
2022/07/12 08:31:29;;;;;;;0.90;0.90;;;29.40;34.60;;;;;;20731;6799;117918;-86
2022/07/12 08:34:04;;;;;;;0.93;0.93;;;29.20;34.20;;;;;;20427;6799;310181;-87
2022/07/12 08:36:41;;;;;;;5.17;1.77;;;29.60;33.30;;;;;;20523;6799;308508;-86
2022/07/12 08:39:17;;;;;;;1.40;1.30;;;29.60;33.30;;;;;;20523;6799;308846;-86
2022/07/12 08:41:53;;;;;;;1.05;1.05;;;29.90;32.40;;;;;;20485;6813;338345;-86
2022/07/12 08:44:29;;;;;;;1.00;1.00;;;30.30;33.40;;;;;;20336;6802;301469;-86
2022/07/12 08:47:05;;;;;;;1.20;1.20;;;30.30;32.80;;;;;;20516;6799;309175;-86
2022/07/12 08:49:40;;;;;;;3.50;1.50;;;30.50;31.70;;;;;;20733;6799;117909;-85
2022/07/12 08:52:26;;;;;;;1.40;1.40;;;30.50;32.50;;;;;;20662;6855;117799;-86
2022/07/12 08:55:01;;;;;;;1.10;1.10;;;30.30;32.90;;;;;;20575;6799;117778;-86
2022/07/12 08:57:37;;;;;;;1.20;1.20;;;30.10;33.00;;;;;;20507;6855;309450;-87
2022/07/12 09:00:13;;;;;;;1.30;1.20;;;30.30;33.10;;;;;;20503;6799;308678;-85
2022/07/12 09:02:53;;;;;;;0.90;0.90;;;30.60;31.00;;;;;;20517;6799;295030;-86
2022/07/12 09:05:28;;;;;;;4.73;4.40;;;30.70;31.30;;;;;;20731;6799;117300;-87
2022/07/12 09:08:07;;;;;;;1.20;1.20;;;30.50;31.30;;;;;;20470;6815;280447;-86
2022/07/12 09:10:48;;;;;;;1.20;1.20;;;30.50;30.80;;;;;;20466;6817;342436;-86
2022/07/12 09:13:51;;;;;;;1.80;1.00;;;30.70;30.50;;;;;;20438;6812;313518;-86
2022/07/12 09:16:27;;;;;;;1.00;1.00;;;30.60;30.10;;;;;;20403;6832;309963;-85
2022/07/12 09:19:19;;;;;;;1.37;1.37;;;30.50;30.00;;;;;;20642;6828;117919;-86
2022/07/12 09:21:54;;;;;;;1.23;1.17;;;30.10;30.60;;;;;;20643;6828;119296;-86
2022/07/12 09:24:26;;;;;;;1.00;1.00;;;29.60;31.60;;;;;;20509;6828;118429;-86
2022/07/12 09:27:09;;;;;;;0.90;0.90;;;29.60;32.20;;;;;;20693;6814;120040;-84
2022/07/12 09:29:45;;;;;;;1.00;1.00;;;29.60;32.50;;;;;;20727;6802;119340;-86
2022/07/12 09:38:12;;;;;;;3.33;1.20;;;29.70;31.60;;;;;;20660;6815;118002;-85
2022/07/12 09:40:49;;;;;;;1.50;1.40;;;29.40;32.60;;;;;;20481;6812;278945;-84
2022/07/12 09:43:24;;;;;;;1.50;1.50;;;29.50;32.70;;;;;;20430;6812;343575;-86
2022/07/12 09:46:00;;;;;;;1.47;1.47;;;29.90;31.30;;;;;;20619;6836;117387;-85
2022/07/12 09:48:35;;;;;;;1.53;1.40;;;29.80;31.50;;;;;;20681;6811;117333;-84
2022/07/12 09:51:15;;;;;;;1.60;1.50;;;29.60;31.70;;;;;;20495;6808;308469;-85
2022/07/12 09:53:51;;;;;;;1.17;1.17;;;29.70;30.90;;;;;;20675;6792;117823;-86
2022/07/12 09:56:27;;;;;;;1.40;1.37;;;29.70;31.50;;;;;;20520;6793;279163;-85
2022/07/12 09:59:04;;;;;;;1.90;1.70;;;29.90;31.80;;;;;;20707;6807;117425;-86
2022/07/12 10:01:38;;;;;;;1.40;1.40;;;29.80;31.90;;;;;;20747;6793;117157;-87
2022/07/12 10:04:14;;;;;;;1.67;1.67;;;29.60;32.40;;;;;;20594;6808;120733;-82
2022/07/12 10:06:50;;;;;;;2.30;1.70;;;29.30;32.30;;;;;;20712;6808;118844;-82
2022/07/12 10:09:26;;;;;;;2.63;1.60;;;29.00;32.60;;;;;;20701;6812;117500;-81
2022/07/12 10:12:02;;;;;;;1.77;1.67;;;29.00;33.40;;;;;;20686;6811;117869;-82
2022/07/12 10:14:37;;;;;;;1.33;1.27;;;29.10;33.40;;;;;;20563;6811;118060;-82
2022/07/12 10:17:13;;;;;;;1.70;1.60;;;29.10;33.20;;;;;;20545;6793;298504;-81
2022/07/12 10:19:48;;;;;;;2.60;1.57;;;29.40;32.30;;;;;;20540;6793;308498;-83
2022/07/12 10:22:25;;;;;;;1.53;1.37;;;29.60;31.40;;;;;;20736;6793;118016;-82
2022/07/12 10:25:01;;;;;;;1.53;1.00;;;29.30;31.70;;;;;;20595;6793;118232;-81
2022/07/12 10:27:37;;;;;;;1.37;1.27;;;28.60;32.90;;;;;;20703;6808;119460;-80
2022/07/12 10:30:13;;;;;;;1.37;1.30;;;28.60;32.90;;;;;;20710;6797;117796;-82
2022/07/12 10:32:48;;;;;;;2.23;1.20;;;28.60;33.30;;;;;;20407;6832;309878;-83
2022/07/12 10:35:24;;;;;;;1.47;1.37;;;29.00;34.40;;;;;;20727;6799;117374;-82
2022/07/12 10:38:13;;;;;;;1.10;1.00;;;29.20;33.30;;;;;;20740;6799;117415;-82
2022/07/12 10:40:48;;;;;;;1.80;1.20;;;29.10;33.00;;;;;;20515;6799;340208;-86
2022/07/12 10:44:04;;;;;;;1.12;1.02;;;29.40;32.10;;;;;;20471;6799;338959;-85
2022/07/12 10:45:59;;;;;;;0.90;0.90;;;29.80;32.60;;;;;;20691;6855;117338;-85
2022/07/12 10:48:35;;;;;;;1.53;1.30;;;29.90;32.00;;;;;;20719;6798;117954;-85
2022/07/12 10:51:10;;;;;;;1.63;1.47;;;29.90;31.90;;;;;;20481;6814;281141;-82
2022/07/12 10:53:48;;;;;;;1.43;1.33;;;30.00;31.20;;;;;;20464;6814;308841;-82
2022/07/12 10:56:22;;;;;;;1.30;1.30;;;30.30;31.50;;;;;;20514;6814;278353;-83
2022/07/12 10:58:58;;;;;;;1.45;1.17;;;30.50;30.10;;;;;;20530;6814;290646;-82
2022/07/12 11:01:35;;;;;;;1.20;1.10;;;30.50;31.20;;;;;;20741;6814;118035;-81
2022/07/12 11:04:10;;;;;;;1.20;1.20;;;30.50;31.10;;;;;;20641;6813;117884;-81
2022/07/12 11:06:47;;;;;;;1.20;1.10;;;30.30;31.20;;;;;;20749;6813;117920;-83
2022/07/12 11:09:23;;;;;;;1.07;1.07;;;30.00;31.90;;;;;;20742;6813;117731;-80
2022/07/12 11:11:59;;;;;;;1.10;1.00;;;30.00;32.00;;;;;;20533;6813;340624;-80
2022/07/12 11:14:35;;;;;;;1.40;1.00;;;30.20;30.20;;;;;;20348;6813;313510;-82
2022/07/12 11:17:10;;;;;;;1.00;1.00;;;30.60;30.90;;;;;;20749;6813;116642;-82
2022/07/12 11:19:46;;;;;;;1.10;1.10;;;30.60;31.00;;;;;;20739;6813;117827;-82
2022/07/12 11:22:21;;;;;;;1.30;1.20;;;30.40;30.60;;;;;;20510;6813;279464;-82
2022/07/12 11:24:57;;;;;;;1.20;1.20;;;30.50;31.20;;;;;;20390;6813;281053;-82
2022/07/12 11:27:34;;;;;;;1.23;1.10;;;30.60;30.50;;;;;;20521;6813;310156;-83
2022/07/12 11:30:10;;;;;;;3.60;1.20;;;30.70;29.70;;;;;;20736;6813;117401;-82
2022/07/12 11:32:47;;;;;;;1.20;1.00;;;30.70;30.20;;;;;;20713;6828;116717;-82
2022/07/12 11:35:22;;;;;;;2.20;1.10;;;30.50;30.40;;;;;;20411;6843;280580;-81
2022/07/12 11:37:57;;;;;;;1.03;1.00;;;30.50;30.40;;;;;;20409;6843;280109;-82
2022/07/12 11:40:34;;;;;;;0.87;0.87;;;30.70;29.80;;;;;;20449;6829;309960;-80
2022/07/12 11:43:10;;;;;;;1.27;1.17;;;30.80;30.80;;;;;;20608;6830;118475;-83
2022/07/12 11:45:46;;;;;;;2.23;1.20;;;30.80;30.40;;;;;;20483;6814;279974;-83
2022/07/12 11:48:22;;;;;;;0.93;0.93;;;30.70;30.30;;;;;;20508;6799;281302;-82
2022/07/12 11:50:57;;;;;;;1.60;0.90;;;31.00;30.40;;;;;;20491;6814;307438;-80
2022/07/12 11:53:33;;;;;;;13.73;2.43;;;31.10;30.00;;;;;;20393;6817;314565;-84
2022/07/12 11:56:08;;;;;;;1.10;0.73;;;31.30;30.70;;;;;;20462;6811;309361;-83
2022/07/12 11:58:44;;;;;;;0.87;0.87;;;31.40;29.80;;;;;;20705;6808;118076;-82
2022/07/12 12:01:19;;;;;;;0.63;0.63;;;31.30;30.00;;;;;;20737;6793;117351;-81
2022/07/12 12:03:56;;;;;;;1.37;1.20;;;31.00;30.20;;;;;;20668;6793;117320;-82
2022/07/12 12:06:31;;;;;;;1.00;1.00;;;30.80;30.40;;;;;;20730;6793;118907;-81
2022/07/12 12:09:06;;;;;;;0.57;0.57;;;30.70;30.40;;;;;;20753;6793;117937;-83
2022/07/12 12:11:43;;;;;;;0.90;0.90;;;30.50;30.70;;;;;;20542;6793;278908;-82
2022/07/12 12:14:17;;;;;;;2.00;1.00;;;30.60;30.20;;;;;;20369;6808;311299;-81
2022/07/12 12:16:57;;;;;;;0.60;0.60;;;30.50;29.90;;;;;;20751;6793;118912;-81
2022/07/12 12:19:29;;;;;;;0.70;0.70;;;30.50;29.90;;;;;;20714;6807;118545;-80
2022/07/12 12:22:05;;;;;;;0.93;0.60;;;30.20;30.50;;;;;;20723;6804;117728;-81
2022/07/12 12:24:40;;;;;;;0.80;0.80;;;30.00;31.00;;;;;;20374;6808;302347;-80
2022/07/12 12:27:24;;;;;;;0.90;0.70;;;30.40;30.00;;;;;;20494;6864;281150;-80
2022/07/12 12:30:05;;;;;;;1.52;0.60;;;30.40;29.70;;;;;;20508;6808;315962;-81
2022/07/12 12:32:54;;;;;;;1.03;0.60;;;30.60;30.60;;;;;;20769;6793;117974;-80
2022/07/12 12:35:36;;;;;;;1.07;0.97;;;30.60;30.30;;;;;;20732;6849;116425;-81
2022/07/12 12:38:12;;;;;;;0.97;0.70;;;30.30;30.90;;;;;;20539;6793;306677;-82
2022/07/12 12:40:51;;;;;;;0.65;0.65;;;30.20;30.90;;;;;;20490;6808;300749;-81
2022/07/12 12:43:27;;;;;;;0.50;0.50;;;30.30;29.60;;;;;;20644;6808;269635;-82
2022/07/12 12:46:03;;;;;;;0.57;0.57;;;30.10;29.50;;;;;;20557;6793;326100;-82
2022/07/12 12:48:46;;;;;;;0.93;0.80;;;30.00;30.50;;;;;;20530;6797;307062;-81
2022/07/12 12:51:21;;;;;;;1.95;0.85;;;30.10;29.80;;;;;;20507;6808;340741;-82
2022/07/12 12:53:58;;;;;;;1.77;0.70;;;30.00;30.20;;;;;;20627;6812;116940;-81
2022/07/12 12:56:33;;;;;;;0.60;0.60;;;30.00;30.20;;;;;;20416;6828;339705;-81
2022/07/12 12:59:09;;;;;;;1.50;0.70;;;30.10;30.70;;;;;;20510;6814;307822;-80
2022/07/12 13:01:45;;;;;;;1.37;0.70;;;30.20;30.20;;;;;;20716;6811;117521;-80
2022/07/12 13:04:20;;;;;;;0.60;0.60;;;30.10;30.00;;;;;;20611;6814;118646;-80
2022/07/12 13:06:56;;;;;;;0.60;0.60;;;29.80;30.60;;;;;;20678;6828;117634;-82
2022/07/12 13:09:31;;;;;;;0.60;0.60;;;29.50;30.80;;;;;;20661;6831;117867;-81
2022/07/12 13:12:07;;;;;;;0.73;0.70;;;29.30;30.90;;;;;;20622;6842;119498;-84
2022/07/12 13:14:43;;;;;;;2.87;0.80;;;29.20;30.70;;;;;;20552;6814;118317;-81
2022/07/12 13:17:19;;;;;;;0.77;0.60;;;29.00;30.90;;;;;;20687;6821;116892;-81
2022/07/12 13:19:54;;;;;;;0.53;0.53;;;29.00;30.90;;;;;;20726;6808;117694;-82
2022/07/12 13:22:30;;;;;;;0.60;0.60;;;29.00;31.30;;;;;;20784;6797;116993;-82
2022/07/12 13:25:07;;;;;;;0.73;0.70;;;29.00;31.10;;;;;;20548;6808;117855;-82
2022/07/12 13:27:43;;;;;;;0.60;0.50;;;29.00;31.10;;;;;;20508;6807;279747;-84
2022/07/12 13:30:19;;;;;;;1.40;0.70;;;29.30;32.80;;;;;;20483;6807;337274;-83
2022/07/12 13:32:54;;;;;;;2.20;0.80;;;29.70;31.60;;;;;;20698;6808;117401;-83
2022/07/12 13:35:29;;;;;;;1.20;0.60;;;29.80;31.10;;;;;;20545;6793;281074;-84